sensor_id;sensor_type;location;lat;lon;timestamp;temperature;humidity
54642;DHT22;40536;53.194;5.728;2023-07-29T00:01:50;18.10;99.90
54642;DHT22;40536;53.194;5.728;2023-07-29T00:04:17;18.10;99.90
54642;DHT22;40536;53.194;5.728;2023-07-29T00:06:44;18.10;99.90
54642;DHT22;40536;53.194;5.728;2023-07-29T00:09:12;18.10;99.90
54642;DHT22;40536;53.194;5.728;2023-07-29T00:11:38;18.10;99.90
54642;DHT22;40536;53.194;5.728;2023-07-29T00:14:04;18.00;99.90
54642;DHT22;40536;53.194;5.728;2023-07-29T00:16:29;18.10;99.90
54642;DHT22;40536;53.194;5.728;2023-07-29T00:18:55;18.00;99.90
54642;DHT22;40536;53.194;5.728;2023-07-29T00:21:21;18.00;99.90
54642;DHT22;40536;53.194;5.728;2023-07-29T00:23:46;18.00;99.90
54642;DHT22;40536;53.194;5.728;2023-07-29T00:26:12;18.00;99.90
54642;DHT22;40536;53.194;5.728;2023-07-29T00:28:37;17.90;99.90
54642;DHT22;40536;53.194;5.728;2023-07-29T00:31:03;17.90;99.90
54642;DHT22;40536;53.194;5.728;2023-07-29T00:33:29;17.90;99.90
54642;DHT22;40536;53.194;5.728;2023-07-29T00:35:54;17.90;99.90
54642;DHT22;40536;53.194;5.728;2023-07-29T00:38:20;17.90;99.90
54642;DHT22;40536;53.194;5.728;2023-07-29T00:40:46;17.80;99.90
54642;DHT22;40536;53.194;5.728;2023-07-29T00:43:11;17.80;99.90
54642;DHT22;40536;53.194;5.728;2023-07-29T00:45:38;17.80;99.90
54642;DHT22;40536;53.194;5.728;2023-07-29T00:48:04;17.80;99.90
54642;DHT22;40536;53.194;5.728;2023-07-29T00:50:31;17.80;99.90
54642;DHT22;40536;53.194;5.728;2023-07-29T00:52:57;17.70;99.90
54642;DHT22;40536;53.194;5.728;2023-07-29T00:55:24;17.70;99.90
54642;DHT22;40536;53.194;5.728;2023-07-29T00:57:50;17.70;99.90
54642;DHT22;40536;53.194;5.728;2023-07-29T01:00:18;17.70;99.90
54642;DHT22;40536;53.194;5.728;2023-07-29T01:02:44;17.70;99.90
54642;DHT22;40536;53.194;5.728;2023-07-29T01:05:13;17.70;99.90
54642;DHT22;40536;53.194;5.728;2023-07-29T01:12:54;17.70;99.90
54642;DHT22;40536;53.194;5.728;2023-07-29T01:17:57;17.70;99.90
54642;DHT22;40536;53.194;5.728;2023-07-29T01:20:25;17.70;99.90
54642;DHT22;40536;53.194;5.728;2023-07-29T01:22:51;17.70;99.90
54642;DHT22;40536;53.194;5.728;2023-07-29T01:25:17;17.70;99.90
54642;DHT22;40536;53.194;5.728;2023-07-29T01:27:45;17.70;99.90
54642;DHT22;40536;53.194;5.728;2023-07-29T01:30:11;17.70;99.90
54642;DHT22;40536;53.194;5.728;2023-07-29T01:32:45;17.70;99.90
54642;DHT22;40536;53.194;5.728;2023-07-29T01:37:52;17.70;99.90
54642;DHT22;40536;53.194;5.728;2023-07-29T01:40:19;17.80;99.90
54642;DHT22;40536;53.194;5.728;2023-07-29T01:42:45;17.80;99.90
54642;DHT22;40536;53.194;5.728;2023-07-29T01:45:11;17.80;99.90
54642;DHT22;40536;53.194;5.728;2023-07-29T01:47:37;17.80;99.90
54642;DHT22;40536;53.194;5.728;2023-07-29T01:50:06;17.80;99.90
54642;DHT22;40536;53.194;5.728;2023-07-29T01:52:32;17.70;99.90
54642;DHT22;40536;53.194;5.728;2023-07-29T01:54:57;17.70;99.90
54642;DHT22;40536;53.194;5.728;2023-07-29T01:57:23;17.70;99.90
54642;DHT22;40536;53.194;5.728;2023-07-29T01:59:49;17.70;99.90
54642;DHT22;40536;53.194;5.728;2023-07-29T02:02:14;17.70;99.90
54642;DHT22;40536;53.194;5.728;2023-07-29T02:04:40;17.70;99.90
54642;DHT22;40536;53.194;5.728;2023-07-29T02:07:07;17.70;99.90
54642;DHT22;40536;53.194;5.728;2023-07-29T02:09:34;17.70;99.90
54642;DHT22;40536;53.194;5.728;2023-07-29T02:11:59;17.60;99.90
54642;DHT22;40536;53.194;5.728;2023-07-29T02:14:25;17.60;99.90
54642;DHT22;40536;53.194;5.728;2023-07-29T02:16:51;17.60;99.90
54642;DHT22;40536;53.194;5.728;2023-07-29T02:19:16;17.60;99.90
54642;DHT22;40536;53.194;5.728;2023-07-29T02:21:42;17.60;99.90
54642;DHT22;40536;53.194;5.728;2023-07-29T02:24:08;17.60;99.90
54642;DHT22;40536;53.194;5.728;2023-07-29T02:26:34;17.50;99.90
54642;DHT22;40536;53.194;5.728;2023-07-29T02:28:59;17.50;99.90
54642;DHT22;40536;53.194;5.728;2023-07-29T02:31:25;17.60;99.90
54642;DHT22;40536;53.194;5.728;2023-07-29T02:33:51;17.60;99.90
54642;DHT22;40536;53.194;5.728;2023-07-29T02:36:17;17.60;99.90
54642;DHT22;40536;53.194;5.728;2023-07-29T02:38:43;17.60;99.90
54642;DHT22;40536;53.194;5.728;2023-07-29T02:41:10;17.60;99.90
54642;DHT22;40536;53.194;5.728;2023-07-29T02:43:37;17.60;99.90
54642;DHT22;40536;53.194;5.728;2023-07-29T02:46:03;17.60;99.90
54642;DHT22;40536;53.194;5.728;2023-07-29T02:48:29;17.60;99.90
54642;DHT22;40536;53.194;5.728;2023-07-29T02:50:55;17.60;99.90
54642;DHT22;40536;53.194;5.728;2023-07-29T02:53:25;17.50;99.90
54642;DHT22;40536;53.194;5.728;2023-07-29T02:55:50;17.50;99.90
54642;DHT22;40536;53.194;5.728;2023-07-29T02:58:16;17.40;99.90
54642;DHT22;40536;53.194;5.728;2023-07-29T03:00:42;17.40;99.90
54642;DHT22;40536;53.194;5.728;2023-07-29T03:03:08;17.40;99.90
54642;DHT22;40536;53.194;5.728;2023-07-29T03:05:34;17.30;99.90
54642;DHT22;40536;53.194;5.728;2023-07-29T03:08:02;17.30;99.90
54642;DHT22;40536;53.194;5.728;2023-07-29T03:10:28;17.20;99.90
54642;DHT22;40536;53.194;5.728;2023-07-29T03:12:54;17.20;99.90
54642;DHT22;40536;53.194;5.728;2023-07-29T03:15:23;17.20;99.90
54642;DHT22;40536;53.194;5.728;2023-07-29T03:17:50;17.10;99.90
54642;DHT22;40536;53.194;5.728;2023-07-29T03:20:16;17.10;99.90
54642;DHT22;40536;53.194;5.728;2023-07-29T03:22:46;17.00;99.90
54642;DHT22;40536;53.194;5.728;2023-07-29T03:25:12;17.00;99.90
54642;DHT22;40536;53.194;5.728;2023-07-29T03:27:38;17.00;99.90
54642;DHT22;40536;53.194;5.728;2023-07-29T03:30:05;16.90;99.90
54642;DHT22;40536;53.194;5.728;2023-07-29T03:32:31;16.80;99.90
54642;DHT22;40536;53.194;5.728;2023-07-29T03:34:57;16.80;99.90
54642;DHT22;40536;53.194;5.728;2023-07-29T03:37:24;16.80;99.90
54642;DHT22;40536;53.194;5.728;2023-07-29T03:39:49;16.70;99.90
54642;DHT22;40536;53.194;5.728;2023-07-29T03:42:17;16.70;99.90
54642;DHT22;40536;53.194;5.728;2023-07-29T03:44:43;16.60;99.90
54642;DHT22;40536;53.194;5.728;2023-07-29T03:47:09;16.60;99.90
54642;DHT22;40536;53.194;5.728;2023-07-29T03:49:34;16.60;99.90
54642;DHT22;40536;53.194;5.728;2023-07-29T03:52:00;16.50;99.90
54642;DHT22;40536;53.194;5.728;2023-07-29T03:54:25;16.50;99.90
54642;DHT22;40536;53.194;5.728;2023-07-29T03:56:51;16.50;99.90
54642;DHT22;40536;53.194;5.728;2023-07-29T03:59:17;16.50;99.90
54642;DHT22;40536;53.194;5.728;2023-07-29T04:01:42;16.50;99.90
54642;DHT22;40536;53.194;5.728;2023-07-29T04:04:08;16.50;99.90
54642;DHT22;40536;53.194;5.728;2023-07-29T04:06:36;16.40;99.90
54642;DHT22;40536;53.194;5.728;2023-07-29T04:09:02;16.50;99.90
54642;DHT22;40536;53.194;5.728;2023-07-29T04:11:27;16.50;99.90
54642;DHT22;40536;53.194;5.728;2023-07-29T04:13:53;16.50;99.90
54642;DHT22;40536;53.194;5.728;2023-07-29T04:16:19;16.50;99.90
54642;DHT22;40536;53.194;5.728;2023-07-29T04:18:44;16.50;99.90
54642;DHT22;40536;53.194;5.728;2023-07-29T04:21:10;16.50;99.90
54642;DHT22;40536;53.194;5.728;2023-07-29T04:23:36;16.50;99.90
54642;DHT22;40536;53.194;5.728;2023-07-29T04:26:01;16.50;99.90
54642;DHT22;40536;53.194;5.728;2023-07-29T04:28:27;16.50;99.90
54642;DHT22;40536;53.194;5.728;2023-07-29T04:30:53;16.50;99.90
54642;DHT22;40536;53.194;5.728;2023-07-29T04:33:18;16.50;99.90
54642;DHT22;40536;53.194;5.728;2023-07-29T04:35:44;16.50;99.90
54642;DHT22;40536;53.194;5.728;2023-07-29T04:38:10;16.50;99.90
54642;DHT22;40536;53.194;5.728;2023-07-29T04:40:36;16.60;99.90
54642;DHT22;40536;53.194;5.728;2023-07-29T04:43:01;16.60;99.90
54642;DHT22;40536;53.194;5.728;2023-07-29T04:45:30;16.60;99.90
54642;DHT22;40536;53.194;5.728;2023-07-29T04:47:57;16.70;99.90
54642;DHT22;40536;53.194;5.728;2023-07-29T04:50:23;16.70;99.90
54642;DHT22;40536;53.194;5.728;2023-07-29T04:52:49;16.80;99.90
54642;DHT22;40536;53.194;5.728;2023-07-29T04:55:15;16.80;99.90
54642;DHT22;40536;53.194;5.728;2023-07-29T04:57:40;16.80;99.90
54642;DHT22;40536;53.194;5.728;2023-07-29T05:00:06;16.90;99.90
54642;DHT22;40536;53.194;5.728;2023-07-29T05:02:32;17.00;99.90
54642;DHT22;40536;53.194;5.728;2023-07-29T05:04:58;17.00;99.90
54642;DHT22;40536;53.194;5.728;2023-07-29T05:07:24;17.00;99.90
54642;DHT22;40536;53.194;5.728;2023-07-29T05:09:50;17.00;99.90
54642;DHT22;40536;53.194;5.728;2023-07-29T05:12:15;17.10;99.90
54642;DHT22;40536;53.194;5.728;2023-07-29T05:14:41;17.10;99.90
54642;DHT22;40536;53.194;5.728;2023-07-29T05:17:07;17.20;99.90
54642;DHT22;40536;53.194;5.728;2023-07-29T05:19:32;17.20;99.90
54642;DHT22;40536;53.194;5.728;2023-07-29T05:21:58;17.30;99.90
54642;DHT22;40536;53.194;5.728;2023-07-29T05:24:23;17.30;99.90
54642;DHT22;40536;53.194;5.728;2023-07-29T05:26:49;17.30;99.90
54642;DHT22;40536;53.194;5.728;2023-07-29T05:29:15;17.40;99.90
54642;DHT22;40536;53.194;5.728;2023-07-29T05:31:41;17.40;99.90
54642;DHT22;40536;53.194;5.728;2023-07-29T05:34:06;17.40;99.90
54642;DHT22;40536;53.194;5.728;2023-07-29T05:36:32;17.40;99.90
54642;DHT22;40536;53.194;5.728;2023-07-29T05:38:58;17.40;99.90
54642;DHT22;40536;53.194;5.728;2023-07-29T05:41:24;17.50;99.90
54642;DHT22;40536;53.194;5.728;2023-07-29T05:43:51;17.50;99.90
54642;DHT22;40536;53.194;5.728;2023-07-29T05:46:17;17.50;99.90
54642;DHT22;40536;53.194;5.728;2023-07-29T05:48:42;17.60;99.90
54642;DHT22;40536;53.194;5.728;2023-07-29T05:51:08;17.70;99.90
54642;DHT22;40536;53.194;5.728;2023-07-29T05:53:34;17.80;99.90
54642;DHT22;40536;53.194;5.728;2023-07-29T05:55:59;17.90;99.90
54642;DHT22;40536;53.194;5.728;2023-07-29T05:58:25;18.00;99.90
54642;DHT22;40536;53.194;5.728;2023-07-29T06:00:51;18.10;99.90
54642;DHT22;40536;53.194;5.728;2023-07-29T06:03:16;18.20;99.90
54642;DHT22;40536;53.194;5.728;2023-07-29T06:05:42;18.40;99.90
54642;DHT22;40536;53.194;5.728;2023-07-29T06:08:08;18.60;99.90
54642;DHT22;40536;53.194;5.728;2023-07-29T06:10:36;18.80;99.90
54642;DHT22;40536;53.194;5.728;2023-07-29T06:13:02;19.00;99.90
54642;DHT22;40536;53.194;5.728;2023-07-29T06:15:28;19.30;99.90
54642;DHT22;40536;53.194;5.728;2023-07-29T06:17:53;19.60;99.90
54642;DHT22;40536;53.194;5.728;2023-07-29T06:20:19;19.90;99.90
54642;DHT22;40536;53.194;5.728;2023-07-29T06:22:44;20.10;99.90
54642;DHT22;40536;53.194;5.728;2023-07-29T06:25:10;20.10;99.90
54642;DHT22;40536;53.194;5.728;2023-07-29T06:27:36;20.10;99.90
54642;DHT22;40536;53.194;5.728;2023-07-29T06:30:02;20.10;99.90
54642;DHT22;40536;53.194;5.728;2023-07-29T06:32:27;20.00;99.90
54642;DHT22;40536;53.194;5.728;2023-07-29T06:34:53;19.90;99.90
54642;DHT22;40536;53.194;5.728;2023-07-29T06:37:20;19.90;99.90
54642;DHT22;40536;53.194;5.728;2023-07-29T06:39:46;19.80;99.90
54642;DHT22;40536;53.194;5.728;2023-07-29T06:42:11;19.70;99.90
54642;DHT22;40536;53.194;5.728;2023-07-29T06:44:37;19.60;99.90
54642;DHT22;40536;53.194;5.728;2023-07-29T06:47:03;19.60;99.90
54642;DHT22;40536;53.194;5.728;2023-07-29T06:49:28;19.50;99.90
54642;DHT22;40536;53.194;5.728;2023-07-29T06:51:54;19.50;99.90
54642;DHT22;40536;53.194;5.728;2023-07-29T06:54:24;19.60;99.90
54642;DHT22;40536;53.194;5.728;2023-07-29T06:56:51;19.60;99.90
54642;DHT22;40536;53.194;5.728;2023-07-29T06:59:16;19.60;99.90
54642;DHT22;40536;53.194;5.728;2023-07-29T07:01:42;19.50;99.90
54642;DHT22;40536;53.194;5.728;2023-07-29T07:04:07;19.40;99.90
54642;DHT22;40536;53.194;5.728;2023-07-29T07:06:34;19.40;99.90
54642;DHT22;40536;53.194;5.728;2023-07-29T07:08:59;19.50;99.90
54642;DHT22;40536;53.194;5.728;2023-07-29T07:11:25;19.70;99.90
54642;DHT22;40536;53.194;5.728;2023-07-29T07:13:51;19.90;99.90
54642;DHT22;40536;53.194;5.728;2023-07-29T07:16:16;20.20;99.90
54642;DHT22;40536;53.194;5.728;2023-07-29T07:18:43;20.70;99.90
54642;DHT22;40536;53.194;5.728;2023-07-29T07:21:09;21.10;99.90
54642;DHT22;40536;53.194;5.728;2023-07-29T07:23:34;21.50;99.90
54642;DHT22;40536;53.194;5.728;2023-07-29T07:26:00;21.70;99.90
54642;DHT22;40536;53.194;5.728;2023-07-29T07:28:26;21.70;99.90
54642;DHT22;40536;53.194;5.728;2023-07-29T07:30:51;21.50;99.90
54642;DHT22;40536;53.194;5.728;2023-07-29T07:33:17;21.30;99.90
54642;DHT22;40536;53.194;5.728;2023-07-29T07:35:43;21.00;99.90
54642;DHT22;40536;53.194;5.728;2023-07-29T07:38:09;21.00;99.90
54642;DHT22;40536;53.194;5.728;2023-07-29T07:40:35;21.00;99.90
54642;DHT22;40536;53.194;5.728;2023-07-29T07:43:01;21.00;99.90
54642;DHT22;40536;53.194;5.728;2023-07-29T07:45:27;21.10;99.90
54642;DHT22;40536;53.194;5.728;2023-07-29T07:47:53;21.20;99.90
54642;DHT22;40536;53.194;5.728;2023-07-29T07:50:20;21.20;99.90
54642;DHT22;40536;53.194;5.728;2023-07-29T07:52:45;21.00;99.90
54642;DHT22;40536;53.194;5.728;2023-07-29T07:55:11;21.00;99.90
54642;DHT22;40536;53.194;5.728;2023-07-29T07:57:37;21.50;99.90
54642;DHT22;40536;53.194;5.728;2023-07-29T08:00:03;22.20;99.90
54642;DHT22;40536;53.194;5.728;2023-07-29T08:02:30;22.60;99.90
54642;DHT22;40536;53.194;5.728;2023-07-29T08:04:55;22.60;99.90
54642;DHT22;40536;53.194;5.728;2023-07-29T08:07:22;22.30;99.90
54642;DHT22;40536;53.194;5.728;2023-07-29T08:09:47;22.10;99.90
54642;DHT22;40536;53.194;5.728;2023-07-29T08:12:13;22.00;99.90
54642;DHT22;40536;53.194;5.728;2023-07-29T08:14:39;21.80;99.90
54642;DHT22;40536;53.194;5.728;2023-07-29T08:17:04;21.70;99.90
54642;DHT22;40536;53.194;5.728;2023-07-29T08:19:30;21.50;99.90
54642;DHT22;40536;53.194;5.728;2023-07-29T08:21:56;21.50;99.90
54642;DHT22;40536;53.194;5.728;2023-07-29T08:24:21;21.70;99.90
54642;DHT22;40536;53.194;5.728;2023-07-29T08:26:47;21.90;99.90
54642;DHT22;40536;53.194;5.728;2023-07-29T08:29:13;22.10;99.90
54642;DHT22;40536;53.194;5.728;2023-07-29T08:31:39;22.10;99.90
54642;DHT22;40536;53.194;5.728;2023-07-29T08:34:04;22.10;99.90
54642;DHT22;40536;53.194;5.728;2023-07-29T08:36:30;22.00;99.90
54642;DHT22;40536;53.194;5.728;2023-07-29T08:38:55;22.00;99.90
54642;DHT22;40536;53.194;5.728;2023-07-29T08:41:44;22.10;99.90
54642;DHT22;40536;53.194;5.728;2023-07-29T08:44:26;22.10;99.90
54642;DHT22;40536;53.194;5.728;2023-07-29T08:46:54;22.20;99.90
54642;DHT22;40536;53.194;5.728;2023-07-29T08:49:21;22.50;99.90
54642;DHT22;40536;53.194;5.728;2023-07-29T08:51:49;22.50;99.90
54642;DHT22;40536;53.194;5.728;2023-07-29T08:54:15;22.40;99.90
54642;DHT22;40536;53.194;5.728;2023-07-29T08:56:42;22.30;99.90
54642;DHT22;40536;53.194;5.728;2023-07-29T08:59:09;22.10;99.90
54642;DHT22;40536;53.194;5.728;2023-07-29T09:01:39;22.10;99.90
54642;DHT22;40536;53.194;5.728;2023-07-29T09:04:05;22.20;99.90
54642;DHT22;40536;53.194;5.728;2023-07-29T09:06:32;22.30;99.90
54642;DHT22;40536;53.194;5.728;2023-07-29T09:08:59;22.40;99.90
54642;DHT22;40536;53.194;5.728;2023-07-29T09:11:25;22.60;99.90
54642;DHT22;40536;53.194;5.728;2023-07-29T09:13:50;22.80;99.90
54642;DHT22;40536;53.194;5.728;2023-07-29T09:16:16;22.90;99.90
54642;DHT22;40536;53.194;5.728;2023-07-29T09:18:42;22.90;99.90
54642;DHT22;40536;53.194;5.728;2023-07-29T09:21:08;22.80;99.90
54642;DHT22;40536;53.194;5.728;2023-07-29T09:23:41;22.90;99.90
54642;DHT22;40536;53.194;5.728;2023-07-29T09:26:08;23.10;99.90
54642;DHT22;40536;53.194;5.728;2023-07-29T09:28:35;23.50;99.90
54642;DHT22;40536;53.194;5.728;2023-07-29T09:31:02;23.80;99.90
54642;DHT22;40536;53.194;5.728;2023-07-29T09:33:29;23.90;99.90
54642;DHT22;40536;53.194;5.728;2023-07-29T09:35:57;23.80;99.90
54642;DHT22;40536;53.194;5.728;2023-07-29T09:38:28;23.50;99.90
54642;DHT22;40536;53.194;5.728;2023-07-29T09:40:56;23.30;99.90
54642;DHT22;40536;53.194;5.728;2023-07-29T09:43:30;23.40;99.90
54642;DHT22;40536;53.194;5.728;2023-07-29T09:46:00;23.40;99.90
54642;DHT22;40536;53.194;5.728;2023-07-29T09:48:26;23.40;99.90
54642;DHT22;40536;53.194;5.728;2023-07-29T09:50:54;23.40;99.90
54642;DHT22;40536;53.194;5.728;2023-07-29T09:53:20;23.60;99.90
54642;DHT22;40536;53.194;5.728;2023-07-29T09:55:47;23.60;99.90
54642;DHT22;40536;53.194;5.728;2023-07-29T09:58:25;23.60;99.90
54642;DHT22;40536;53.194;5.728;2023-07-29T10:00:51;24.00;99.90
54642;DHT22;40536;53.194;5.728;2023-07-29T10:03:18;24.70;99.90
54642;DHT22;40536;53.194;5.728;2023-07-29T10:05:44;25.10;99.90
54642;DHT22;40536;53.194;5.728;2023-07-29T10:08:10;24.40;99.90
54642;DHT22;40536;53.194;5.728;2023-07-29T10:10:37;23.80;99.90
54642;DHT22;40536;53.194;5.728;2023-07-29T10:13:03;23.30;99.90
54642;DHT22;40536;53.194;5.728;2023-07-29T10:15:29;23.30;99.90
54642;DHT22;40536;53.194;5.728;2023-07-29T10:17:57;23.40;99.90
54642;DHT22;40536;53.194;5.728;2023-07-29T10:20:23;23.60;99.90
54642;DHT22;40536;53.194;5.728;2023-07-29T10:22:49;23.60;99.90
54642;DHT22;40536;53.194;5.728;2023-07-29T10:25:22;23.80;99.90
54642;DHT22;40536;53.194;5.728;2023-07-29T10:28:03;23.60;99.90
54642;DHT22;40536;53.194;5.728;2023-07-29T10:30:30;23.90;99.90
54642;DHT22;40536;53.194;5.728;2023-07-29T10:32:58;24.50;99.90
54642;DHT22;40536;53.194;5.728;2023-07-29T10:35:24;24.80;99.90
54642;DHT22;40536;53.194;5.728;2023-07-29T10:37:51;25.30;99.90
54642;DHT22;40536;53.194;5.728;2023-07-29T10:40:19;25.80;99.90
54642;DHT22;40536;53.194;5.728;2023-07-29T10:43:01;25.50;99.90
54642;DHT22;40536;53.194;5.728;2023-07-29T10:45:36;24.90;99.90
54642;DHT22;40536;53.194;5.728;2023-07-29T10:48:51;24.50;99.90
54642;DHT22;40536;53.194;5.728;2023-07-29T10:51:56;24.20;99.90
54642;DHT22;40536;53.194;5.728;2023-07-29T10:54:09;24.20;99.90
54642;DHT22;40536;53.194;5.728;2023-07-29T10:56:37;23.50;99.90
54642;DHT22;40536;53.194;5.728;2023-07-29T11:01:39;22.30;99.90
54642;DHT22;40536;53.194;5.728;2023-07-29T11:12:34;21.30;99.90
54642;DHT22;40536;53.194;5.728;2023-07-29T11:17:34;21.20;99.90
54642;DHT22;40536;53.194;5.728;2023-07-29T11:20:02;21.40;99.90
54642;DHT22;40536;53.194;5.728;2023-07-29T11:22:29;22.10;99.90
54642;DHT22;40536;53.194;5.728;2023-07-29T11:24:54;23.30;99.90
54642;DHT22;40536;53.194;5.728;2023-07-29T11:27:20;24.50;99.90
54642;DHT22;40536;53.194;5.728;2023-07-29T11:29:47;25.50;99.90
54642;DHT22;40536;53.194;5.728;2023-07-29T11:32:13;25.80;99.90
54642;DHT22;40536;53.194;5.728;2023-07-29T11:34:38;26.20;99.90
54642;DHT22;40536;53.194;5.728;2023-07-29T11:37:05;26.60;99.90
54642;DHT22;40536;53.194;5.728;2023-07-29T11:39:43;27.30;99.90
54642;DHT22;40536;53.194;5.728;2023-07-29T11:42:13;27.60;99.90
54642;DHT22;40536;53.194;5.728;2023-07-29T11:44:39;28.10;99.90
54642;DHT22;40536;53.194;5.728;2023-07-29T11:47:09;27.70;99.90
54642;DHT22;40536;53.194;5.728;2023-07-29T11:49:35;27.60;99.90
54642;DHT22;40536;53.194;5.728;2023-07-29T11:52:03;26.80;99.90
54642;DHT22;40536;53.194;5.728;2023-07-29T11:54:29;25.80;99.90
54642;DHT22;40536;53.194;5.728;2023-07-29T11:56:55;24.90;99.90
54642;DHT22;40536;53.194;5.728;2023-07-29T11:59:21;24.20;99.90
54642;DHT22;40536;53.194;5.728;2023-07-29T12:01:47;24.00;99.90
54642;DHT22;40536;53.194;5.728;2023-07-29T12:04:13;23.70;99.90
54642;DHT22;40536;53.194;5.728;2023-07-29T12:06:42;23.50;99.90
54642;DHT22;40536;53.194;5.728;2023-07-29T12:09:08;23.20;99.90
54642;DHT22;40536;53.194;5.728;2023-07-29T12:11:34;23.10;99.90
54642;DHT22;40536;53.194;5.728;2023-07-29T12:14:00;22.70;99.90
54642;DHT22;40536;53.194;5.728;2023-07-29T12:16:26;22.50;99.90
54642;DHT22;40536;53.194;5.728;2023-07-29T12:18:52;22.40;99.90
54642;DHT22;40536;53.194;5.728;2023-07-29T12:21:19;22.50;99.90
54642;DHT22;40536;53.194;5.728;2023-07-29T12:23:44;22.80;99.90
54642;DHT22;40536;53.194;5.728;2023-07-29T12:26:10;23.00;99.90
54642;DHT22;40536;53.194;5.728;2023-07-29T12:28:36;23.00;99.90
54642;DHT22;40536;53.194;5.728;2023-07-29T12:31:01;22.90;99.90
54642;DHT22;40536;53.194;5.728;2023-07-29T12:33:36;23.00;99.90
54642;DHT22;40536;53.194;5.728;2023-07-29T12:36:04;23.20;99.90
54642;DHT22;40536;53.194;5.728;2023-07-29T12:38:30;23.30;99.90
54642;DHT22;40536;53.194;5.728;2023-07-29T12:40:56;23.40;99.90
54642;DHT22;40536;53.194;5.728;2023-07-29T12:43:22;23.50;99.90
54642;DHT22;40536;53.194;5.728;2023-07-29T12:45:50;23.70;99.90
54642;DHT22;40536;53.194;5.728;2023-07-29T12:48:16;23.80;99.90
54642;DHT22;40536;53.194;5.728;2023-07-29T12:50:42;23.90;99.90
54642;DHT22;40536;53.194;5.728;2023-07-29T12:53:08;23.80;99.90
54642;DHT22;40536;53.194;5.728;2023-07-29T12:55:37;24.00;99.90
54642;DHT22;40536;53.194;5.728;2023-07-29T12:58:03;24.10;99.90
54642;DHT22;40536;53.194;5.728;2023-07-29T13:00:29;24.30;99.90
54642;DHT22;40536;53.194;5.728;2023-07-29T13:02:55;24.30;99.90
54642;DHT22;40536;53.194;5.728;2023-07-29T13:05:20;24.20;99.90
54642;DHT22;40536;53.194;5.728;2023-07-29T13:07:46;24.30;99.90
54642;DHT22;40536;53.194;5.728;2023-07-29T13:10:14;24.70;99.90
54642;DHT22;40536;53.194;5.728;2023-07-29T13:12:39;24.90;99.90
54642;DHT22;40536;53.194;5.728;2023-07-29T13:15:06;24.70;99.90
54642;DHT22;40536;53.194;5.728;2023-07-29T13:17:32;24.60;99.90
54642;DHT22;40536;53.194;5.728;2023-07-29T13:19:58;24.60;99.90
54642;DHT22;40536;53.194;5.728;2023-07-29T13:22:24;24.70;99.90
54642;DHT22;40536;53.194;5.728;2023-07-29T13:24:49;24.90;99.90
54642;DHT22;40536;53.194;5.728;2023-07-29T13:27:15;24.90;99.90
54642;DHT22;40536;53.194;5.728;2023-07-29T13:29:40;24.70;99.90
54642;DHT22;40536;53.194;5.728;2023-07-29T13:32:07;24.70;99.90
54642;DHT22;40536;53.194;5.728;2023-07-29T13:34:33;24.90;99.90
54642;DHT22;40536;53.194;5.728;2023-07-29T13:37:00;25.00;99.90
54642;DHT22;40536;53.194;5.728;2023-07-29T13:39:25;25.00;99.90
54642;DHT22;40536;53.194;5.728;2023-07-29T13:41:51;25.10;99.90
54642;DHT22;40536;53.194;5.728;2023-07-29T13:44:16;24.90;99.90
54642;DHT22;40536;53.194;5.728;2023-07-29T13:46:42;25.00;99.90
54642;DHT22;40536;53.194;5.728;2023-07-29T13:49:08;25.10;99.90
54642;DHT22;40536;53.194;5.728;2023-07-29T13:51:33;25.10;99.90
54642;DHT22;40536;53.194;5.728;2023-07-29T13:53:59;24.70;99.90
54642;DHT22;40536;53.194;5.728;2023-07-29T13:56:24;24.70;99.90
54642;DHT22;40536;53.194;5.728;2023-07-29T13:58:50;24.70;99.90
54642;DHT22;40536;53.194;5.728;2023-07-29T14:01:16;24.60;99.90
54642;DHT22;40536;53.194;5.728;2023-07-29T14:03:41;24.80;99.90
54642;DHT22;40536;53.194;5.728;2023-07-29T14:06:07;24.90;99.90
54642;DHT22;40536;53.194;5.728;2023-07-29T14:08:33;25.00;99.90
54642;DHT22;40536;53.194;5.728;2023-07-29T14:11:00;24.90;99.90
54642;DHT22;40536;53.194;5.728;2023-07-29T14:13:26;24.90;99.90
54642;DHT22;40536;53.194;5.728;2023-07-29T14:15:51;24.70;99.90
54642;DHT22;40536;53.194;5.728;2023-07-29T14:18:17;24.60;99.90
54642;DHT22;40536;53.194;5.728;2023-07-29T14:20:43;24.60;99.90
54642;DHT22;40536;53.194;5.728;2023-07-29T14:23:08;24.70;99.90
54642;DHT22;40536;53.194;5.728;2023-07-29T14:25:34;24.50;99.90
54642;DHT22;40536;53.194;5.728;2023-07-29T14:28:00;24.50;99.90
54642;DHT22;40536;53.194;5.728;2023-07-29T14:30:25;24.70;99.90
54642;DHT22;40536;53.194;5.728;2023-07-29T14:32:51;24.40;99.90
54642;DHT22;40536;53.194;5.728;2023-07-29T14:35:16;24.30;99.90
54642;DHT22;40536;53.194;5.728;2023-07-29T14:37:42;24.00;99.90
54642;DHT22;40536;53.194;5.728;2023-07-29T14:40:08;23.90;99.90
54642;DHT22;40536;53.194;5.728;2023-07-29T14:42:33;24.00;99.90
54642;DHT22;40536;53.194;5.728;2023-07-29T14:44:59;24.00;99.90
54642;DHT22;40536;53.194;5.728;2023-07-29T14:47:25;24.00;99.90
54642;DHT22;40536;53.194;5.728;2023-07-29T14:49:50;24.10;99.90
54642;DHT22;40536;53.194;5.728;2023-07-29T14:52:16;24.20;99.90
54642;DHT22;40536;53.194;5.728;2023-07-29T14:54:42;24.30;99.90
54642;DHT22;40536;53.194;5.728;2023-07-29T14:57:09;24.30;99.90
54642;DHT22;40536;53.194;5.728;2023-07-29T14:59:34;24.30;99.90
54642;DHT22;40536;53.194;5.728;2023-07-29T15:02:00;24.20;99.90
54642;DHT22;40536;53.194;5.728;2023-07-29T15:04:26;24.10;99.90
54642;DHT22;40536;53.194;5.728;2023-07-29T15:06:52;24.10;99.90
54642;DHT22;40536;53.194;5.728;2023-07-29T15:09:18;24.20;99.90
54642;DHT22;40536;53.194;5.728;2023-07-29T15:11:43;24.10;99.90
54642;DHT22;40536;53.194;5.728;2023-07-29T15:14:09;24.00;99.90
54642;DHT22;40536;53.194;5.728;2023-07-29T15:16:34;24.00;99.90
54642;DHT22;40536;53.194;5.728;2023-07-29T15:19:02;23.90;99.90
54642;DHT22;40536;53.194;5.728;2023-07-29T15:21:28;23.80;99.90
54642;DHT22;40536;53.194;5.728;2023-07-29T15:23:54;23.70;99.90
54642;DHT22;40536;53.194;5.728;2023-07-29T15:26:19;23.80;99.90
54642;DHT22;40536;53.194;5.728;2023-07-29T15:28:45;23.80;99.90
54642;DHT22;40536;53.194;5.728;2023-07-29T15:31:12;23.90;99.90
54642;DHT22;40536;53.194;5.728;2023-07-29T15:33:38;24.00;99.90
54642;DHT22;40536;53.194;5.728;2023-07-29T15:36:04;24.20;99.90
54642;DHT22;40536;53.194;5.728;2023-07-29T15:38:30;24.20;99.90
54642;DHT22;40536;53.194;5.728;2023-07-29T15:40:55;24.10;99.90
54642;DHT22;40536;53.194;5.728;2023-07-29T15:43:22;24.20;99.90
54642;DHT22;40536;53.194;5.728;2023-07-29T15:45:47;24.10;99.90
54642;DHT22;40536;53.194;5.728;2023-07-29T15:48:13;24.00;99.90
54642;DHT22;40536;53.194;5.728;2023-07-29T15:50:39;24.00;99.90